Time;durP1;ratioP1;P1;durP2;ratioP2;P2;SDS_P1;SDS_P2;PMS_P1;PMS_P2;Temp;Humidity;BMP_temperature;BMP_pressure;BME280_temperature;BME280_humidity;BME280_pressure;Samples;Min_cycle;Max_cycle;Signal;HPM_P1;HPM_P2
2022/08/08 00:03:05;;;;;;;1999.90;999.90;;;;;;;11.64;100.00;100401.09;5042369;28;20056;-51
2022/08/08 00:06:12;;;;;;;1999.90;999.90;;;;;;;11.63;100.00;100407.25;5052637;28;20052;-51
2022/08/08 00:09:21;;;;;;;1999.90;999.90;;;;;;;11.58;100.00;100402.97;5054499;28;20053;-50
2022/08/08 00:12:11;;;;;;;1999.90;999.90;;;;;;;11.60;100.00;100395.91;5057246;28;20076;-51
2022/08/08 00:15:08;;;;;;;1999.90;999.90;;;;;;;11.51;100.00;100402.22;5056043;28;20056;-51
2022/08/08 00:17:58;;;;;;;1999.90;999.90;;;;;;;11.44;100.00;100398.84;5055828;28;20060;-50
2022/08/08 00:20:52;;;;;;;1999.90;999.90;;;;;;;11.47;100.00;100403.16;5057334;28;21517;-50
2022/08/08 00:23:42;;;;;;;1999.90;999.90;;;;;;;11.50;100.00;100397.84;5055438;28;20068;-51
2022/08/08 00:26:30;;;;;;;1999.90;999.90;;;;;;;11.37;100.00;100396.34;5056643;28;20044;-50
2022/08/08 00:29:26;;;;;;;1999.90;999.90;;;;;;;11.48;100.00;100401.41;5057989;28;20064;-51
2022/08/08 00:32:16;;;;;;;1999.90;999.90;;;;;;;11.48;100.00;100390.94;5059165;28;20048;-51
2022/08/08 00:35:21;;;;;;;1999.90;999.90;;;;;;;11.50;100.00;100387.34;5057954;28;20076;-50
2022/08/08 00:38:16;;;;;;;1999.90;999.90;;;;;;;11.44;100.00;100393.59;5059146;28;20045;-51
2022/08/08 00:41:13;;;;;;;1999.90;999.90;;;;;;;11.47;100.00;100387.41;5056864;28;20106;-51
2022/08/08 00:44:31;;;;;;;1999.90;999.90;;;;;;;11.34;100.00;100393.78;5057531;28;20126;-51
2022/08/08 00:47:59;;;;;;;1999.90;999.90;;;;;;;11.43;100.00;100398.88;5060854;28;20056;-50
2022/08/08 00:50:56;;;;;;;1999.90;999.90;;;;;;;11.42;100.00;100400.63;5057725;28;20454;-51
2022/08/08 00:54:23;;;;;;;1999.90;999.90;;;;;;;11.30;100.00;100402.63;5055354;28;20068;-50
2022/08/08 00:57:21;;;;;;;1999.90;999.90;;;;;;;11.31;100.00;100402.59;5036499;28;20091;-51
2022/08/08 01:00:19;;;;;;;1999.90;999.90;;;;;;;11.23;100.00;100396.63;5061201;28;20047;-51
2022/08/08 01:03:47;;;;;;;1999.90;999.90;;;;;;;11.36;100.00;100402.50;5058349;28;20118;-51
2022/08/08 01:06:55;;;;;;;1999.90;999.90;;;;;;;11.35;100.00;100392.91;5003435;28;20115;-51
2022/08/08 01:10:21;;;;;;;1999.90;999.90;;;;;;;11.20;100.00;100402.78;5059634;28;20051;-50
2022/08/08 01:13:07;;;;;;;1999.90;999.90;;;;;;;11.27;100.00;100403.53;5056239;28;20077;-51
2022/08/08 01:16:27;;;;;;;1999.90;999.90;;;;;;;11.29;100.00;100396.50;5067862;28;20052;-50
2022/08/08 01:19:32;;;;;;;1999.90;999.90;;;;;;;11.31;100.00;100399.09;5030697;28;20052;-51
2022/08/08 01:22:35;;;;;;;1999.90;999.90;;;;;;;11.23;100.00;100394.84;5052259;28;20454;-50
2022/08/08 01:25:39;;;;;;;1999.90;999.90;;;;;;;11.01;100.00;100404.00;5057228;28;20482;-51
2022/08/08 01:29:22;;;;;;;1999.90;999.90;;;;;;;11.07;100.00;100403.91;5056660;28;20052;-51
2022/08/08 01:32:07;;;;;;;1999.90;999.90;;;;;;;10.99;100.00;100397.94;4963505;28;20078;-50
2022/08/08 01:35:21;;;;;;;1999.90;999.90;;;;;;;11.08;100.00;100400.41;4968713;28;20050;-50
2022/08/08 01:38:17;;;;;;;1999.90;999.90;;;;;;;11.13;100.00;100398.53;5055386;28;20412;-51
2022/08/08 01:41:27;;;;;;;1999.90;999.90;;;;;;;11.00;100.00;100397.03;5062362;28;20055;-50
2022/08/08 01:44:12;;;;;;;1999.90;999.90;;;;;;;11.05;100.00;100408.31;5054260;28;20545;-51
2022/08/08 01:47:00;;;;;;;1999.90;999.90;;;;;;;10.89;100.00;100412.97;5060973;28;20593;-51
2022/08/08 01:50:20;;;;;;;1999.90;999.90;;;;;;;10.98;100.00;100414.53;5059723;28;20505;-51
2022/08/08 01:53:41;;;;;;;1999.90;999.90;;;;;;;11.04;100.00;100413.56;5056756;28;20346;-51
2022/08/08 01:57:02;;;;;;;1999.90;999.90;;;;;;;11.07;100.00;100408.28;5059722;28;20440;-51
2022/08/08 02:00:21;;;;;;;1999.90;999.90;;;;;;;10.89;100.00;100407.72;5059987;28;20598;-50
2022/08/08 02:03:32;;;;;;;1999.90;999.90;;;;;;;10.89;100.00;100402.47;5055430;28;20075;-51
2022/08/08 02:06:20;;;;;;;1999.90;999.90;;;;;;;10.86;100.00;100405.16;5060584;28;20388;-52
2022/08/08 02:09:26;;;;;;;1999.90;999.90;;;;;;;10.74;100.00;100400.97;5054066;28;20067;-51
2022/08/08 02:12:27;;;;;;;1999.90;999.90;;;;;;;10.74;100.00;100406.19;5055335;28;20194;-50
2022/08/08 02:15:25;;;;;;;1999.90;999.90;;;;;;;10.76;100.00;100393.94;5061510;28;20068;-51
2022/08/08 02:18:21;;;;;;;1999.90;999.90;;;;;;;10.28;100.00;100401.66;5053121;28;20049;-50
2022/08/08 02:24:37;;;;;;;1999.90;999.90;;;;;;;10.68;100.00;100411.53;5056548;28;20087;-50
2022/08/08 02:27:41;;;;;;;1999.90;999.90;;;;;;;10.64;100.00;100406.38;5069170;28;20419;-50
2022/08/08 02:30:44;;;;;;;;;;;;;;;10.67;100.00;100415.06;5053384;28;20492;-51
2022/08/08 02:34:04;;;;;;;1999.90;999.90;;;;;;;10.72;100.00;100413.25;5056062;28;20006;-50
2022/08/08 02:37:22;;;;;;;1999.90;999.90;;;;;;;10.29;100.00;100408.63;5060117;28;20052;-51
2022/08/08 02:40:26;;;;;;;1999.90;999.90;;;;;;;10.43;100.00;100411.06;5058343;28;20514;-50
2022/08/08 02:43:33;;;;;;;1999.90;999.90;;;;;;;10.51;100.00;100409.19;5054638;28;20102;-51
2022/08/08 02:46:26;;;;;;;1999.90;999.90;;;;;;;10.37;100.00;100412.91;5052888;28;20690;-50
2022/08/08 02:49:30;;;;;;;1999.90;999.90;;;;;;;10.26;100.00;100415.66;5057596;28;20114;-50
2022/08/08 02:52:17;;;;;;;1999.90;999.90;;;;;;;10.24;100.00;100415.66;5058239;28;20669;-50
2022/08/08 02:55:32;;;;;;;1999.90;999.90;;;;;;;10.29;100.00;100421.72;5055685;28;20049;-51
2022/08/08 02:58:51;;;;;;;1999.90;999.90;;;;;;;10.28;100.00;100422.63;5061019;28;21890;-51
2022/08/08 03:02:10;;;;;;;1999.90;999.90;;;;;;;10.33;100.00;100422.53;5059034;28;20080;-50
2022/08/08 03:05:21;;;;;;;1999.90;999.90;;;;;;;10.32;100.00;100423.44;5054192;28;20206;-50
2022/08/08 03:08:40;;;;;;;1999.90;999.90;;;;;;;10.19;100.00;100422.72;5036068;28;20099;-51
2022/08/08 03:11:50;;;;;;;1999.90;999.90;;;;;;;10.24;100.00;100420.91;5050817;28;20071;-50
2022/08/08 03:15:04;;;;;;;1999.90;999.90;;;;;;;10.29;100.00;100426.09;5052332;28;20113;-51
2022/08/08 03:18:08;;;;;;;1999.90;999.90;;;;;;;10.33;100.00;100427.78;5051183;28;20059;-50
2022/08/08 03:20:55;;;;;;;1999.90;999.90;;;;;;;10.26;100.00;100428.75;5044798;28;20045;-51
2022/08/08 03:23:44;;;;;;;1999.90;999.90;;;;;;;10.25;100.00;100427.84;5057502;28;20129;-50
2022/08/08 03:26:30;;;;;;;1999.90;999.90;;;;;;;10.25;100.00;100429.63;5052420;28;20102;-50
2022/08/08 03:29:20;;;;;;;1999.90;999.90;;;;;;;10.19;100.00;100443.66;5052649;28;20139;-51
2022/08/08 03:35:10;;;;;;;1999.90;999.90;;;;;;;10.27;100.00;100439.22;5052507;28;20095;-50
2022/08/08 03:37:55;;;;;;;1999.90;999.90;;;;;;;10.23;100.00;100434.84;5059265;28;20051;-51
2022/08/08 03:40:53;;;;;;;1999.90;999.90;;;;;;;10.29;100.00;100441.81;5051770;28;20036;-50
2022/08/08 03:43:41;;;;;;;1999.90;999.90;;;;;;;10.29;100.00;100442.66;5057528;28;20627;-51
2022/08/08 03:46:25;;;;;;;1999.90;999.90;;;;;;;10.29;100.00;100436.56;5059116;28;20507;-50
2022/08/08 03:49:18;;;;;;;1999.90;999.90;;;;;;;10.34;100.00;100444.38;5051188;28;20494;-51
2022/08/08 03:52:03;;;;;;;1999.90;999.90;;;;;;;10.38;100.00;100443.44;5055501;28;20056;-50
2022/08/08 03:54:48;;;;;;;1999.90;999.90;;;;;;;10.37;100.00;100449.56;5058338;28;20491;-50
2022/08/08 03:57:34;;;;;;;1999.90;999.90;;;;;;;10.49;100.00;100446.75;5055040;28;20068;-50
2022/08/08 04:00:22;;;;;;;1999.90;999.90;;;;;;;10.50;100.00;100445.88;5051896;28;20495;-51
2022/08/08 04:03:13;;;;;;;1999.90;999.90;;;;;;;10.62;100.00;100442.19;5053474;28;20059;-51
2022/08/08 04:06:04;;;;;;;1999.90;999.90;;;;;;;10.64;100.00;100443.91;5051638;28;20570;-51
2022/08/08 04:08:48;;;;;;;1999.90;999.90;;;;;;;10.70;100.00;100451.69;5051914;28;20087;-50
2022/08/08 04:11:39;;;;;;;1999.90;999.90;;;;;;;10.75;100.00;100444.59;5052605;28;20059;-51
2022/08/08 04:14:25;;;;;;;1999.90;999.90;;;;;;;10.81;100.00;100451.50;5050943;28;20086;-51
2022/08/08 04:17:09;;;;;;;1999.90;999.90;;;;;;;10.75;100.00;100430.63;5053952;28;20049;-51
2022/08/08 04:19:55;;;;;;;1999.90;999.90;;;;;;;10.88;100.00;100452.28;5053854;28;21563;-51
2022/08/08 04:22:40;;;;;;;1999.90;999.90;;;;;;;10.97;100.00;100455.63;5051785;28;20044;-50
2022/08/08 04:25:26;;;;;;;1999.90;999.90;;;;;;;11.15;100.00;100453.59;5052509;28;20052;-51
2022/08/08 04:28:10;;;;;;;1999.90;999.90;;;;;;;11.25;100.00;100452.53;5054470;28;20060;-50
2022/08/08 04:30:55;;;;;;;1999.90;999.90;;;;;;;11.35;100.00;100448.84;5056264;28;20114;-51
2022/08/08 04:33:40;;;;;;;1999.90;999.90;;;;;;;11.60;100.00;100454.53;5053348;28;20534;-51
2022/08/08 04:36:25;;;;;;;1999.90;999.90;;;;;;;11.81;100.00;100452.38;5057931;28;20087;-51
2022/08/08 04:39:10;;;;;;;1999.90;999.90;;;;;;;11.98;100.00;100466.03;5052672;28;20040;-51
2022/08/08 04:41:55;;;;;;;1999.90;999.90;;;;;;;11.96;100.00;100459.97;5053047;28;21956;-51
2022/08/08 04:44:40;;;;;;;1999.90;999.90;;;;;;;12.17;100.00;100448.13;5049499;28;20063;-51
2022/08/08 04:47:25;;;;;;;1999.90;999.90;;;;;;;12.51;100.00;100464.03;5050225;28;20291;-51
2022/08/08 04:50:10;;;;;;;1999.90;999.90;;;;;;;12.93;100.00;100455.16;5046445;28;20071;-51
2022/08/08 04:52:56;;;;;;;1999.90;999.90;;;;;;;13.20;100.00;100458.88;5049202;28;20083;-50
2022/08/08 04:55:40;;;;;;;1999.90;999.90;;;;;;;13.16;100.00;100462.47;5051664;28;20041;-50
2022/08/08 04:58:25;;;;;;;1999.90;999.90;;;;;;;13.21;100.00;100473.75;5048151;28;20084;-51
2022/08/08 05:01:10;;;;;;;1999.90;999.90;;;;;;;13.30;100.00;100468.31;5047045;28;20048;-51
2022/08/08 05:03:58;;;;;;;1999.90;999.90;;;;;;;13.84;100.00;100470.34;5048717;28;20052;-50
2022/08/08 05:06:44;;;;;;;1999.90;999.90;;;;;;;14.24;100.00;100472.69;5048010;28;20044;-52
2022/08/08 05:09:30;;;;;;;1999.90;999.90;;;;;;;14.17;100.00;100465.00;5066312;28;20051;-51
2022/08/08 05:12:15;;;;;;;1999.90;999.90;;;;;;;14.24;100.00;100469.22;5052731;28;20252;-51
2022/08/08 05:15:01;;;;;;;1999.90;999.90;;;;;;;14.84;100.00;100480.56;5050661;28;20079;-51
2022/08/08 05:17:45;;;;;;;1999.90;999.90;;;;;;;15.09;100.00;100470.94;5051811;28;20139;-52
2022/08/08 05:20:30;;;;;;;1999.90;999.90;;;;;;;15.23;100.00;100480.16;5053492;28;20071;-52
2022/08/08 05:23:14;;;;;;;1999.90;999.90;;;;;;;15.55;100.00;100474.66;5050821;28;20048;-52
2022/08/08 05:26:02;;;;;;;1999.90;999.90;;;;;;;15.92;100.00;100465.44;5055478;28;20094;-53
2022/08/08 05:28:46;;;;;;;1999.90;999.90;;;;;;;16.39;100.00;100477.81;5056455;28;20456;-51
2022/08/08 05:31:31;;;;;;;1999.90;999.90;;;;;;;16.41;100.00;100482.13;5058111;28;20602;-52
2022/08/08 05:34:26;;;;;;;1999.90;999.90;;;;;;;16.73;100.00;100474.69;5056234;28;20122;-51
2022/08/08 05:37:15;;;;;;;1999.90;999.90;;;;;;;16.84;100.00;100479.59;5061762;28;20090;-51
2022/08/08 05:40:04;;;;;;;1999.90;999.90;;;;;;;16.97;100.00;100478.19;5055976;28;20044;-52
2022/08/08 05:42:51;;;;;;;1999.90;999.90;;;;;;;17.57;100.00;100473.84;5058539;28;20095;-52
2022/08/08 05:45:37;;;;;;;1999.90;999.90;;;;;;;17.20;100.00;100479.88;5055180;28;20053;-51
2022/08/08 05:48:23;;;;;;;1999.90;999.90;;;;;;;17.59;100.00;100490.56;5060162;28;20500;-52
2022/08/08 05:51:09;;;;;;;1999.90;999.90;;;;;;;18.17;100.00;100482.69;5058300;28;20045;-51
2022/08/08 05:53:53;;;;;;;1999.90;999.90;;;;;;;18.30;100.00;100483.00;5059430;28;20522;-52
2022/08/08 05:56:41;;;;;;;1999.90;999.90;;;;;;;18.33;100.00;100492.56;5056882;28;20072;-52
2022/08/08 05:59:25;;;;;;;1999.90;999.90;;;;;;;18.05;100.00;100499.16;5058727;28;20098;-52
2022/08/08 06:05:28;;;;;;;1999.90;999.90;;;;;;;18.13;100.00;100498.78;5062853;28;20045;-52
2022/08/08 06:08:13;;;;;;;1999.90;999.90;;;;;;;18.13;100.00;100506.75;5058968;28;20052;-53
2022/08/08 06:11:00;;;;;;;1999.90;999.90;;;;;;;19.06;100.00;100491.75;5058158;28;20083;-52
2022/08/08 06:13:47;;;;;;;1999.90;999.90;;;;;;;19.17;100.00;100488.53;5064248;28;20059;-52
2022/08/08 06:16:40;;;;;;;1999.90;999.90;;;;;;;19.70;100.00;100505.41;5062357;28;20061;-52
2022/08/08 06:19:31;;;;;;;1999.90;999.90;;;;;;;19.62;100.00;100506.59;5061983;28;20051;-52
2022/08/08 06:22:16;;;;;;;1999.90;999.90;;;;;;;19.47;100.00;100512.72;5063518;28;20052;-53
2022/08/08 06:25:07;;;;;;;1999.90;999.90;;;;;;;20.18;100.00;100509.03;5063195;28;20507;-53
2022/08/08 06:27:55;;;;;;;1999.90;999.90;;;;;;;19.91;100.00;100511.38;5063239;28;20075;-52
2022/08/08 06:30:43;;;;;;;1999.90;999.90;;;;;;;20.11;100.00;100510.31;5060736;28;20045;-53
2022/08/08 06:33:35;;;;;;;1999.90;999.90;;;;;;;20.73;100.00;100506.94;5058970;28;20060;-53
2022/08/08 06:36:41;;;;;;;1999.90;999.90;;;;;;;20.96;100.00;100510.94;5058076;28;20091;-52
2022/08/08 06:39:29;;;;;;;1999.90;999.90;;;;;;;20.72;100.00;100504.34;5061582;28;20079;-53
2022/08/08 06:42:17;;;;;;;1999.90;999.90;;;;;;;21.40;100.00;100496.88;5059756;28;20526;-52
2022/08/08 06:45:04;;;;;;;1999.90;999.90;;;;;;;21.15;100.00;100512.53;5056875;28;20048;-53
2022/08/08 06:47:50;;;;;;;1999.90;999.90;;;;;;;21.85;97.83;100513.72;5041971;28;20056;-53
2022/08/08 06:50:35;;;;;;;1999.90;999.90;;;;;;;20.64;98.25;100514.56;5055923;28;20503;-53
2022/08/08 06:53:21;;;;;;;1999.90;999.90;;;;;;;22.10;98.69;100513.06;5053389;28;20055;-53
2022/08/08 06:56:12;;;;;;;1999.90;999.90;;;;;;;22.08;91.93;100520.31;5057006;28;20180;-55
2022/08/08 06:58:57;;;;;;;1999.90;999.90;;;;;;;22.17;95.59;100517.09;5057249;28;20476;-54
2022/08/08 07:01:51;;;;;;;1999.90;999.90;;;;;;;22.04;96.21;100515.25;5050088;28;20706;-54
2022/08/08 07:04:54;;;;;;;1999.90;999.90;;;;;;;22.22;95.37;100523.97;5055242;28;20056;-53
2022/08/08 07:07:50;;;;;;;1999.90;999.90;;;;;;;21.89;96.16;100520.56;5062770;28;20080;-54
2022/08/08 07:10:37;;;;;;;1999.90;999.90;;;;;;;;;;5057870;28;20656;-54
2022/08/08 07:13:28;;;;;;;1999.90;999.90;;;;;;;22.92;92.82;100513.28;5053952;28;20616;-55
2022/08/08 07:16:40;;;;;;;1999.90;999.90;;;;;;;21.98;94.05;100515.63;5056486;28;20054;-54
2022/08/08 07:19:46;;;;;;;1999.90;999.90;;;;;;;22.43;90.20;100513.75;5055906;28;20095;-55
2022/08/08 07:22:42;;;;;;;1999.90;999.90;;;;;;;22.61;91.51;100510.75;5060123;28;20054;-55
2022/08/08 07:25:30;;;;;;;1999.90;999.90;;;;;;;23.09;86.61;100510.38;5058341;28;20083;-55
2022/08/08 07:28:15;;;;;;;1999.90;999.90;;;;;;;22.78;87.92;100500.81;5059827;28;20829;-55
2022/08/08 07:31:04;;;;;;;1999.90;999.90;;;;;;;22.62;82.74;100509.81;5056036;28;20045;-55
2022/08/08 07:33:49;;;;;;;1999.90;999.90;;;;;;;22.23;84.60;100507.00;5060710;28;20053;-54
2022/08/08 07:36:36;;;;;;;1999.90;999.90;;;;;;;21.82;86.34;100513.91;5056542;28;20633;-54
2022/08/08 07:39:24;;;;;;;1999.90;999.90;;;;;;;22.33;85.56;100508.16;5057997;28;20055;-54
2022/08/08 07:42:12;;;;;;;1999.90;999.90;;;;;;;23.36;84.94;100510.34;5053252;28;20048;-55
2022/08/08 07:44:57;;;;;;;1999.90;999.90;;;;;;;23.21;85.37;100517.59;5059455;28;20069;-54
2022/08/08 07:47:41;;;;;;;1999.90;999.90;;;;;;;22.52;85.59;100518.50;5057276;28;20060;-54
2022/08/08 07:50:30;;;;;;;1999.90;999.90;;;;;;;22.80;86.44;100513.09;5059849;28;20075;-56
2022/08/08 07:53:26;;;;;;;1999.90;999.90;;;;;;;22.35;83.56;100511.56;5055634;28;20068;-55
2022/08/08 07:56:15;;;;;;;1999.90;999.90;;;;;;;22.44;85.88;100512.81;5055856;28;20522;-54
2022/08/08 07:59:01;;;;;;;1999.90;999.90;;;;;;;23.57;84.02;100516.06;5067786;28;20059;-54
2022/08/08 08:01:56;;;;;;;1999.90;999.90;;;;;;;22.46;83.34;100513.56;5058064;28;20094;-54
2022/08/08 08:04:44;;;;;;;1999.90;999.90;;;;;;;24.16;81.87;100511.09;5059765;28;20063;-55
2022/08/08 08:07:33;;;;;;;1999.90;999.90;;;;;;;24.08;80.74;100516.13;5061785;28;20920;-54
2022/08/08 08:10:23;;;;;;;1999.90;999.90;;;;;;;23.67;78.20;100514.47;5061379;28;20122;-54
2022/08/08 08:13:19;;;;;;;1999.90;999.90;;;;;;;23.56;81.55;100515.22;5057923;28;20117;-53
2022/08/08 08:16:12;;;;;;;1999.90;999.90;;;;;;;24.10;79.92;100522.22;5058623;28;20087;-54
2022/08/08 08:19:07;;;;;;;1999.90;999.90;;;;;;;23.78;80.23;100516.44;5053042;28;20093;-55
2022/08/08 08:21:55;;;;;;;1999.90;999.90;;;;;;;23.78;82.45;100519.09;5057457;28;20053;-54
2022/08/08 08:24:59;;;;;;;1999.90;999.90;;;;;;;24.13;81.80;100511.31;5059483;28;20114;-54
2022/08/08 08:27:44;;;;;;;1999.90;999.90;;;;;;;24.71;82.59;100517.88;5055303;28;20086;-53
2022/08/08 08:30:29;;;;;;;1999.90;999.90;;;;;;;24.44;82.87;100525.22;5063401;28;20159;-54
2022/08/08 08:33:13;;;;;;;1999.90;999.90;;;;;;;24.94;76.87;100523.34;5055151;28;20496;-55
2022/08/08 08:35:59;;;;;;;1999.90;999.90;;;;;;;24.24;77.82;100516.75;5054602;28;20059;-54
2022/08/08 08:38:45;;;;;;;1999.90;999.90;;;;;;;24.86;77.85;100520.38;5048921;28;20044;-55
2022/08/08 08:41:32;;;;;;;1999.90;999.90;;;;;;;24.35;79.81;100509.78;5055152;28;20083;-56
2022/08/08 08:44:17;;;;;;;1999.90;999.90;;;;;;;25.50;76.29;100520.09;5055404;28;20072;-55
2022/08/08 08:47:03;;;;;;;1999.90;999.90;;;;;;;24.52;80.38;100512.13;5051218;28;20091;-54
2022/08/08 08:49:48;;;;;;;1999.90;999.90;;;;;;;23.78;72.23;100519.97;5053294;28;20079;-54
2022/08/08 08:52:35;;;;;;;1999.90;999.90;;;;;;;25.06;73.87;100516.25;5054813;28;20124;-54
2022/08/08 08:55:20;;;;;;;1999.90;999.90;;;;;;;24.66;72.04;100509.28;5054719;28;20100;-54
2022/08/08 08:58:08;;;;;;;1999.90;999.90;;;;;;;25.26;74.37;100512.09;5053293;28;20064;-55
2022/08/08 09:00:54;;;;;;;1999.90;999.90;;;;;;;26.40;70.82;100509.53;5056657;28;20731;-55
2022/08/08 09:03:40;;;;;;;1999.90;999.90;;;;;;;26.36;70.94;100508.91;5055961;28;20099;-54
2022/08/08 09:06:26;;;;;;;1999.90;999.90;;;;;;;24.09;70.16;100509.81;5052782;28;20056;-55
2022/08/08 09:09:19;;;;;;;1999.90;999.90;;;;;;;23.88;73.78;100503.28;5055108;28;21462;-55
2022/08/08 09:12:05;;;;;;;1999.90;999.90;;;;;;;22.71;74.40;100499.50;5052534;28;20161;-55
2022/08/08 09:14:54;;;;;;;1999.90;999.90;;;;;;;23.27;76.89;100505.63;5056028;28;20110;-54
2022/08/08 09:17:41;;;;;;;1999.90;999.90;;;;;;;24.53;69.65;100508.47;5055153;28;20083;-55
2022/08/08 09:20:28;;;;;;;1999.90;999.90;;;;;;;24.83;66.05;100512.56;5057967;28;20040;-55
2022/08/08 09:23:13;;;;;;;1999.90;999.90;;;;;;;23.82;73.36;100504.56;5060828;28;20056;-55
2022/08/08 09:26:16;;;;;;;1999.90;999.90;;;;;;;23.08;74.69;100508.69;5056982;28;20049;-54
2022/08/08 09:29:05;;;;;;;1999.90;999.90;;;;;;;24.13;74.44;100510.44;5054793;28;21430;-55
2022/08/08 09:31:59;;;;;;;1999.90;999.90;;;;;;;23.91;73.20;100514.63;5057539;28;20808;-54
2022/08/08 09:34:50;;;;;;;1999.90;999.90;;;;;;;23.54;71.23;100506.44;5056775;28;20495;-54
2022/08/08 09:37:43;;;;;;;1999.90;999.90;;;;;;;23.87;65.29;100509.59;5056401;28;20048;-53
2022/08/08 09:40:31;;;;;;;1999.90;999.90;;;;;;;24.99;70.77;100514.97;5054559;28;20075;-54
2022/08/08 09:43:28;;;;;;;1999.90;999.90;;;;;;;24.09;67.22;100515.16;5050263;28;20101;-55
2022/08/08 09:46:15;;;;;;;1999.90;999.90;;;;;;;25.11;69.51;100511.38;5053035;28;20071;-55
2022/08/08 09:49:01;;;;;;;1999.90;999.90;;;;;;;24.95;64.85;100508.97;5053697;28;20897;-55
2022/08/08 09:51:54;;;;;;;1999.90;999.90;;;;;;;25.62;57.91;100500.41;5056395;28;20064;-54
2022/08/08 09:54:43;;;;;;;1999.90;999.90;;;;;;;26.09;59.37;100507.44;5060174;28;20399;-55
2022/08/08 09:57:34;;;;;;;1999.90;999.90;;;;;;;25.94;62.86;100511.34;5074601;28;20075;-55
2022/08/08 10:00:19;;;;;;;1999.90;999.90;;;;;;;26.17;59.12;100506.84;5067670;28;20383;-55
2022/08/08 10:03:04;;;;;;;1999.90;999.90;;;;;;;26.39;68.11;100514.06;5058283;28;20071;-55
2022/08/08 10:05:48;;;;;;;1999.90;999.90;;;;;;;25.67;62.89;100511.59;5055855;28;20187;-56
2022/08/08 10:08:42;;;;;;;1999.90;999.90;;;;;;;26.34;58.75;100509.03;5057334;28;20946;-54
2022/08/08 10:11:27;;;;;;;1999.90;999.90;;;;;;;26.17;57.45;100498.78;5057053;28;20053;-54
2022/08/08 10:14:12;;;;;;;1999.90;999.90;;;;;;;27.61;55.74;100495.00;5057961;28;20060;-53
2022/08/08 10:16:56;;;;;;;1999.90;999.90;;;;;;;26.30;59.01;100502.19;5055437;28;20048;-54
2022/08/08 10:19:41;;;;;;;1999.90;999.90;;;;;;;27.61;56.48;100502.22;5061342;28;20529;-53
2022/08/08 10:22:27;;;;;;;1999.90;999.90;;;;;;;26.20;54.16;100495.00;5054711;28;20431;-53
2022/08/08 10:25:18;;;;;;;1999.90;999.90;;;;;;;26.97;56.45;100497.72;5060249;28;20560;-53
2022/08/08 10:28:05;;;;;;;1999.90;999.90;;;;;;;25.76;55.34;100489.44;5057304;28;20071;-53
2022/08/08 10:30:57;;;;;;;1999.90;999.90;;;;;;;27.10;57.85;100484.94;5059788;28;20079;-53
2022/08/08 10:33:42;;;;;;;1999.90;999.90;;;;;;;26.69;59.38;100483.03;5073447;28;20052;-53
2022/08/08 10:36:27;;;;;;;1999.90;999.90;;;;;;;26.42;53.46;100475.34;5063040;28;20075;-53
2022/08/08 10:39:22;;;;;;;1999.90;999.90;;;;;;;27.41;57.53;100482.41;5065048;28;20050;-54
2022/08/08 10:42:10;;;;;;;1999.90;999.90;;;;;;;26.66;55.63;100477.91;5075891;28;20516;-54
2022/08/08 10:45:05;;;;;;;1999.90;999.90;;;;;;;27.18;53.86;100469.06;5063961;28;20071;-53
2022/08/08 10:47:55;;;;;;;1999.90;999.90;;;;;;;24.99;58.85;100475.63;5058208;28;20522;-53
2022/08/08 10:50:40;;;;;;;1999.90;999.90;;;;;;;25.40;58.70;100480.56;5069593;28;20087;-53
2022/08/08 10:53:34;;;;;;;1999.90;999.90;;;;;;;25.32;59.64;100477.66;5062143;28;20498;-54
2022/08/08 10:56:18;;;;;;;1999.90;999.90;;;;;;;25.86;58.80;100484.25;5061198;28;20094;-53
2022/08/08 10:59:08;;;;;;;1999.90;999.90;;;;;;;26.42;57.13;100478.91;5058513;28;20056;-54
2022/08/08 11:01:53;;;;;;;1999.90;999.90;;;;;;;26.39;58.68;100470.22;5057535;28;20541;-53
2022/08/08 11:04:45;;;;;;;1999.90;999.90;;;;;;;26.73;56.70;100458.47;5065159;28;20106;-54
2022/08/08 11:07:33;;;;;;;1999.90;999.90;;;;;;;27.24;57.62;100470.41;5054310;28;20114;-55
2022/08/08 11:10:21;;;;;;;1999.90;999.90;;;;;;;26.70;64.70;100476.66;5063201;28;20280;-54
2022/08/08 11:13:06;;;;;;;1999.90;999.90;;;;;;;26.78;54.50;100475.06;5065801;28;20075;-55
2022/08/08 11:15:54;;;;;;;1999.90;999.90;;;;;;;27.26;54.30;100465.72;5058267;28;20126;-54
2022/08/08 11:18:39;;;;;;;1999.90;999.90;;;;;;;27.49;52.99;100464.66;5054416;28;20478;-53
2022/08/08 11:21:25;;;;;;;1999.90;999.90;;;;;;;26.94;48.97;100469.28;5055703;28;20396;-54
2022/08/08 11:24:11;;;;;;;1999.90;999.90;;;;;;;25.72;55.21;100471.88;5057788;28;20748;-55
2022/08/08 11:27:01;;;;;;;1999.90;999.90;;;;;;;25.06;57.29;100465.34;5056537;28;20075;-54
2022/08/08 11:29:47;;;;;;;1999.90;999.90;;;;;;;25.14;57.85;100474.53;5053725;28;20041;-54
2022/08/08 11:32:36;;;;;;;1999.90;999.90;;;;;;;24.82;58.76;100465.31;5054815;28;20538;-54
2022/08/08 11:35:22;;;;;;;1999.90;999.90;;;;;;;26.34;57.80;100470.59;5055216;28;20051;-53
2022/08/08 11:38:07;;;;;;;1999.90;999.90;;;;;;;26.17;55.23;100461.22;5056519;28;20566;-53
2022/08/08 11:40:53;;;;;;;1999.90;999.90;;;;;;;24.94;56.50;100464.41;5053665;28;20048;-54
2022/08/08 11:43:38;;;;;;;1999.90;999.90;;;;;;;25.16;57.43;100459.19;5057354;28;20052;-53
2022/08/08 11:46:25;;;;;;;1999.90;999.90;;;;;;;25.87;54.88;100454.63;5056907;28;20054;-54
2022/08/08 11:49:10;;;;;;;1999.90;999.90;;;;;;;25.95;55.61;100459.38;5057123;28;20056;-54
2022/08/08 11:51:56;;;;;;;1999.90;999.90;;;;;;;26.60;53.48;100447.00;5054869;28;20152;-53
2022/08/08 11:54:42;;;;;;;1999.90;999.90;;;;;;;26.78;53.63;100448.19;5051765;28;20129;-54
2022/08/08 11:57:28;;;;;;;1999.90;999.90;;;;;;;27.04;52.02;100459.47;5052221;28;20400;-54
2022/08/08 12:00:16;;;;;;;1999.90;999.90;;;;;;;26.99;55.69;100448.22;5052622;28;20056;-55
2022/08/08 12:03:23;;;;;;;1999.90;999.90;;;;;;;26.57;55.90;100460.69;5051494;28;20144;-53
2022/08/08 12:06:15;;;;;;;1999.90;999.90;;;;;;;26.10;62.63;100466.22;5051188;28;20053;-53
2022/08/08 12:09:09;;;;;;;1999.90;999.90;;;;;;;26.41;55.25;100468.25;5055694;28;20048;-54
2022/08/08 12:11:54;;;;;;;1999.90;999.90;;;;;;;26.29;55.63;100468.28;5053004;28;20083;-55
2022/08/08 12:14:38;;;;;;;1999.90;999.90;;;;;;;25.36;59.58;100471.06;5053803;28;20052;-54
2022/08/08 12:17:34;;;;;;;1999.90;999.90;;;;;;;24.26;60.37;100473.81;5053565;28;20672;-54
2022/08/08 12:20:19;;;;;;;1999.90;999.90;;;;;;;24.17;60.59;100464.63;5055968;28;20146;-54
2022/08/08 12:23:03;;;;;;;1999.90;999.90;;;;;;;25.03;60.71;100463.72;5056513;28;20060;-53
2022/08/08 12:25:48;;;;;;;1999.90;999.90;;;;;;;25.95;57.68;100461.22;5057301;28;20159;-53
2022/08/08 12:28:32;;;;;;;1999.90;999.90;;;;;;;26.30;56.54;100461.09;5059626;28;20089;-54
2022/08/08 12:31:17;;;;;;;1999.90;999.90;;;;;;;26.04;54.25;100458.66;5057965;28;20060;-54
2022/08/08 12:34:01;;;;;;;1999.90;999.90;;;;;;;26.40;57.08;100456.66;5058276;28;20355;-54
2022/08/08 12:36:45;;;;;;;1999.90;999.90;;;;;;;26.10;59.68;100449.25;5058753;28;20600;-52
2022/08/08 12:39:30;;;;;;;1999.90;999.90;;;;;;;26.08;61.16;100446.69;5060462;28;20084;-53
2022/08/08 12:42:14;;;;;;;1999.90;999.90;;;;;;;25.68;56.45;100457.00;5057437;28;20513;-53
2022/08/08 12:45:08;;;;;;;1999.90;999.90;;;;;;;25.44;55.09;100450.84;5055198;28;20080;-53